<?xml version="1.0" encoding="UTF-8" standalone="no" ?><gpx xmlns="http://www.topografix.com/GPX/1/1" xmlns:gpxx="http://www.garmin.com/xmlschemas/GpxExtensions/v3" xmlns:wptx1="http://www.garmin.com/xmlschemas/WaypointExtension/v1" xmlns:gpxtpx="http://www.garmin.com/xmlschemas/TrackPointExtension/v1" creator="GuideVTT.com" version="1.1" xmlns:xsi="http://www.w3.org/2001/XMLSchema-instance" xsi:schemaLocation="http://www.topografix.com/GPX/1/1 http://www.topografix.com/GPX/1/1/gpx.xsd http://www.garmin.com/xmlschemas/GpxExtensions/v3 http://www8.garmin.com/xmlschemas/GpxExtensionsv3.xsd http://www.garmin.com/xmlschemas/WaypointExtension/v1 http://www8.garmin.com/xmlschemas/WaypointExtensionv1.xsd http://www.garmin.com/xmlschemas/TrackPointExtension/v1 http://www.garmin.com/xmlschemas/TrackPointExtensionv1.xsd">
<metadata><link href="http://www.garmin.com"><text>Garmin International</text></link><time>2013-06-22T15:13:50Z</time></metadata>
<trk><name>parcours19.gpx</name><extensions><gpxx:TrackExtension><gpxx:DisplayColor>Cyan</gpxx:DisplayColor></gpxx:TrackExtension></extensions><trkseg>
<trkpt lat="46.25343330" lon="7.41631670"><ele></ele><time>2014-6-4T20:18:35Z</time></trkpt>
<trkpt lat="46.25341670" lon="7.41631670"><ele></ele><time>2014-6-4T20:18:38Z</time></trkpt>
<trkpt lat="46.25341670" lon="7.41628330"><ele></ele><time>2014-6-4T20:18:41Z</time></trkpt>
<trkpt lat="46.25363330" lon="7.41613330"><ele></ele><time>2014-6-4T20:18:44Z</time></trkpt>
<trkpt lat="46.25375000" lon="7.41640000"><ele></ele><time>2014-6-4T20:18:47Z</time></trkpt>
<trkpt lat="46.25401670" lon="7.41748330"><ele></ele><time>2014-6-4T20:18:50Z</time></trkpt>
<trkpt lat="46.25416670" lon="7.41745000"><ele></ele><time>2014-6-4T20:18:53Z</time></trkpt>
<trkpt lat="46.25420000" lon="7.41733330"><ele></ele><time>2014-6-4T20:18:56Z</time></trkpt>
<trkpt lat="46.25450000" lon="7.41741670"><ele></ele><time>2014-6-4T20:18:59Z</time></trkpt>
<trkpt lat="46.25520000" lon="7.41751670"><ele></ele><time>2014-6-4T20:19:2Z</time></trkpt>
<trkpt lat="46.25535000" lon="7.41758330"><ele></ele><time>2014-6-4T20:19:5Z</time></trkpt>
<trkpt lat="46.25553330" lon="7.41800000"><ele></ele><time>2014-6-4T20:19:8Z</time></trkpt>
<trkpt lat="46.25551670" lon="7.41840000"><ele></ele><time>2014-6-4T20:19:11Z</time></trkpt>
<trkpt lat="46.25546670" lon="7.41851670"><ele></ele><time>2014-6-4T20:19:14Z</time></trkpt>
<trkpt lat="46.25558330" lon="7.41931670"><ele></ele><time>2014-6-4T20:19:17Z</time></trkpt>
<trkpt lat="46.25568330" lon="7.41973330"><ele></ele><time>2014-6-4T20:19:20Z</time></trkpt>
<trkpt lat="46.25583330" lon="7.42001670"><ele></ele><time>2014-6-4T20:19:23Z</time></trkpt>
<trkpt lat="46.25628330" lon="7.41978330"><ele></ele><time>2014-6-4T20:19:26Z</time></trkpt>
<trkpt lat="46.25635000" lon="7.42003330"><ele></ele><time>2014-6-4T20:19:29Z</time></trkpt>
<trkpt lat="46.25658330" lon="7.42053330"><ele></ele><time>2014-6-4T20:19:32Z</time></trkpt>
<trkpt lat="46.25665000" lon="7.42086670"><ele></ele><time>2014-6-4T20:19:35Z</time></trkpt>
<trkpt lat="46.25703330" lon="7.42175000"><ele></ele><time>2014-6-4T20:19:38Z</time></trkpt>
<trkpt lat="46.25715000" lon="7.42188330"><ele></ele><time>2014-6-4T20:19:41Z</time></trkpt>
<trkpt lat="46.25718330" lon="7.42180000"><ele></ele><time>2014-6-4T20:19:44Z</time></trkpt>
<trkpt lat="46.25708330" lon="7.42131670"><ele></ele><time>2014-6-4T20:19:47Z</time></trkpt>
<trkpt lat="46.25711670" lon="7.42121670"><ele></ele><time>2014-6-4T20:19:50Z</time></trkpt>
<trkpt lat="46.25736670" lon="7.42123330"><ele></ele><time>2014-6-4T20:19:53Z</time></trkpt>
<trkpt lat="46.25760000" lon="7.42160000"><ele></ele><time>2014-6-4T20:19:56Z</time></trkpt>
<trkpt lat="46.25796670" lon="7.42195000"><ele></ele><time>2014-6-4T20:19:59Z</time></trkpt>
<trkpt lat="46.25806670" lon="7.42256670"><ele></ele><time>2014-6-4T20:20:2Z</time></trkpt>
<trkpt lat="46.25806670" lon="7.42316670"><ele></ele><time>2014-6-4T20:20:5Z</time></trkpt>
<trkpt lat="46.25815000" lon="7.42331670"><ele></ele><time>2014-6-4T20:20:8Z</time></trkpt>
<trkpt lat="46.25821670" lon="7.42323330"><ele></ele><time>2014-6-4T20:20:11Z</time></trkpt>
<trkpt lat="46.25841670" lon="7.42235000"><ele></ele><time>2014-6-4T20:20:14Z</time></trkpt>
<trkpt lat="46.25841670" lon="7.42205000"><ele></ele><time>2014-6-4T20:20:17Z</time></trkpt>
<trkpt lat="46.25825000" lon="7.42131670"><ele></ele><time>2014-6-4T20:20:20Z</time></trkpt>
<trkpt lat="46.25843330" lon="7.42038330"><ele></ele><time>2014-6-4T20:20:23Z</time></trkpt>
<trkpt lat="46.25841670" lon="7.41923330"><ele></ele><time>2014-6-4T20:20:26Z</time></trkpt>
<trkpt lat="46.25825000" lon="7.41861670"><ele></ele><time>2014-6-4T20:20:29Z</time></trkpt>
<trkpt lat="46.25818330" lon="7.41825000"><ele></ele><time>2014-6-4T20:20:32Z</time></trkpt>
<trkpt lat="46.25826670" lon="7.41801670"><ele></ele><time>2014-6-4T20:20:35Z</time></trkpt>
<trkpt lat="46.25845000" lon="7.41793330"><ele></ele><time>2014-6-4T20:20:38Z</time></trkpt>
<trkpt lat="46.25941670" lon="7.41776670"><ele></ele><time>2014-6-4T20:20:41Z</time></trkpt>
<trkpt lat="46.25946670" lon="7.41785000"><ele></ele><time>2014-6-4T20:20:44Z</time></trkpt>
<trkpt lat="46.25945000" lon="7.41810000"><ele></ele><time>2014-6-4T20:20:47Z</time></trkpt>
<trkpt lat="46.25946670" lon="7.41838330"><ele></ele><time>2014-6-4T20:20:50Z</time></trkpt>
<trkpt lat="46.25961670" lon="7.41896670"><ele></ele><time>2014-6-4T20:20:53Z</time></trkpt>
<trkpt lat="46.25996670" lon="7.41968330"><ele></ele><time>2014-6-4T20:20:56Z</time></trkpt>
<trkpt lat="46.26006670" lon="7.42001670"><ele></ele><time>2014-6-4T20:20:59Z</time></trkpt>
<trkpt lat="46.26020000" lon="7.42023330"><ele></ele><time>2014-6-4T20:21:2Z</time></trkpt>
<trkpt lat="46.26023330" lon="7.42003330"><ele></ele><time>2014-6-4T20:21:5Z</time></trkpt>
<trkpt lat="46.26010000" lon="7.41980000"><ele></ele><time>2014-6-4T20:21:8Z</time></trkpt>
<trkpt lat="46.26006670" lon="7.41943330"><ele></ele><time>2014-6-4T20:21:11Z</time></trkpt>
<trkpt lat="46.26010000" lon="7.41906670"><ele></ele><time>2014-6-4T20:21:14Z</time></trkpt>
<trkpt lat="46.26025000" lon="7.41886670"><ele></ele><time>2014-6-4T20:21:17Z</time></trkpt>
<trkpt lat="46.26055000" lon="7.41861670"><ele></ele><time>2014-6-4T20:21:20Z</time></trkpt>
<trkpt lat="46.26065000" lon="7.41821670"><ele></ele><time>2014-6-4T20:21:23Z</time></trkpt>
<trkpt lat="46.26055000" lon="7.41766670"><ele></ele><time>2014-6-4T20:21:26Z</time></trkpt>
<trkpt lat="46.26065000" lon="7.41751670"><ele></ele><time>2014-6-4T20:21:29Z</time></trkpt>
<trkpt lat="46.26068330" lon="7.41755000"><ele></ele><time>2014-6-4T20:21:32Z</time></trkpt>
<trkpt lat="46.26081670" lon="7.41793330"><ele></ele><time>2014-6-4T20:21:35Z</time></trkpt>
<trkpt lat="46.26095000" lon="7.41815000"><ele></ele><time>2014-6-4T20:21:38Z</time></trkpt>
<trkpt lat="46.26113330" lon="7.41833330"><ele></ele><time>2014-6-4T20:21:41Z</time></trkpt>
<trkpt lat="46.26145000" lon="7.41881670"><ele></ele><time>2014-6-4T20:21:44Z</time></trkpt>
<trkpt lat="46.26176670" lon="7.41906670"><ele></ele><time>2014-6-4T20:21:47Z</time></trkpt>
<trkpt lat="46.26188330" lon="7.41921670"><ele></ele><time>2014-6-4T20:21:50Z</time></trkpt>
<trkpt lat="46.26213330" lon="7.41958330"><ele></ele><time>2014-6-4T20:21:53Z</time></trkpt>
<trkpt lat="46.26231670" lon="7.41978330"><ele></ele><time>2014-6-4T20:21:56Z</time></trkpt>
<trkpt lat="46.26253330" lon="7.41995000"><ele></ele><time>2014-6-4T20:21:59Z</time></trkpt>
<trkpt lat="46.26290000" lon="7.42008330"><ele></ele><time>2014-6-4T20:22:2Z</time></trkpt>
<trkpt lat="46.26321670" lon="7.42025000"><ele></ele><time>2014-6-4T20:22:5Z</time></trkpt>
<trkpt lat="46.26358330" lon="7.42020000"><ele></ele><time>2014-6-4T20:22:8Z</time></trkpt>
<trkpt lat="46.26371670" lon="7.42040000"><ele></ele><time>2014-6-4T20:22:11Z</time></trkpt>
<trkpt lat="46.26371670" lon="7.42068330"><ele></ele><time>2014-6-4T20:22:14Z</time></trkpt>
<trkpt lat="46.26360000" lon="7.42098330"><ele></ele><time>2014-6-4T20:22:17Z</time></trkpt>
<trkpt lat="46.26345000" lon="7.42118330"><ele></ele><time>2014-6-4T20:22:20Z</time></trkpt>
<trkpt lat="46.26303330" lon="7.42166670"><ele></ele><time>2014-6-4T20:22:23Z</time></trkpt>
<trkpt lat="46.26291670" lon="7.42181670"><ele></ele><time>2014-6-4T20:22:26Z</time></trkpt>
<trkpt lat="46.26270000" lon="7.42281670"><ele></ele><time>2014-6-4T20:22:29Z</time></trkpt>
<trkpt lat="46.26268330" lon="7.42318330"><ele></ele><time>2014-6-4T20:22:32Z</time></trkpt>
<trkpt lat="46.26251670" lon="7.42406670"><ele></ele><time>2014-6-4T20:22:35Z</time></trkpt>
<trkpt lat="46.26226670" lon="7.42423330"><ele></ele><time>2014-6-4T20:22:38Z</time></trkpt>
<trkpt lat="46.26195000" lon="7.42490000"><ele></ele><time>2014-6-4T20:22:41Z</time></trkpt>
<trkpt lat="46.26166670" lon="7.42513330"><ele></ele><time>2014-6-4T20:22:44Z</time></trkpt>
<trkpt lat="46.26131670" lon="7.42531670"><ele></ele><time>2014-6-4T20:22:47Z</time></trkpt>
<trkpt lat="46.26071670" lon="7.42528330"><ele></ele><time>2014-6-4T20:22:50Z</time></trkpt>
<trkpt lat="46.26043330" lon="7.42555000"><ele></ele><time>2014-6-4T20:22:53Z</time></trkpt>
<trkpt lat="46.26013330" lon="7.42588330"><ele></ele><time>2014-6-4T20:22:56Z</time></trkpt>
<trkpt lat="46.26000000" lon="7.42673330"><ele></ele><time>2014-6-4T20:22:59Z</time></trkpt>
<trkpt lat="46.25998330" lon="7.42733330"><ele></ele><time>2014-6-4T20:23:2Z</time></trkpt>
<trkpt lat="46.25998330" lon="7.42800000"><ele></ele><time>2014-6-4T20:23:5Z</time></trkpt>
<trkpt lat="46.26006670" lon="7.42860000"><ele></ele><time>2014-6-4T20:23:8Z</time></trkpt>
<trkpt lat="46.26036670" lon="7.42965000"><ele></ele><time>2014-6-4T20:23:11Z</time></trkpt>
<trkpt lat="46.26086670" lon="7.43115000"><ele></ele><time>2014-6-4T20:23:14Z</time></trkpt>
<trkpt lat="46.26096670" lon="7.43163330"><ele></ele><time>2014-6-4T20:23:17Z</time></trkpt>
<trkpt lat="46.26111670" lon="7.43258330"><ele></ele><time>2014-6-4T20:23:20Z</time></trkpt>
<trkpt lat="46.26148330" lon="7.43390000"><ele></ele><time>2014-6-4T20:23:23Z</time></trkpt>
<trkpt lat="46.26195000" lon="7.43505000"><ele></ele><time>2014-6-4T20:23:26Z</time></trkpt>
<trkpt lat="46.26260000" lon="7.43621670"><ele></ele><time>2014-6-4T20:23:29Z</time></trkpt>
<trkpt lat="46.26291670" lon="7.43690000"><ele></ele><time>2014-6-4T20:23:32Z</time></trkpt>
<trkpt lat="46.26305000" lon="7.43721670"><ele></ele><time>2014-6-4T20:23:35Z</time></trkpt>
<trkpt lat="46.26326670" lon="7.43811670"><ele></ele><time>2014-6-4T20:23:38Z</time></trkpt>
<trkpt lat="46.26338330" lon="7.43840000"><ele></ele><time>2014-6-4T20:23:41Z</time></trkpt>
<trkpt lat="46.26351670" lon="7.43861670"><ele></ele><time>2014-6-4T20:23:44Z</time></trkpt>
<trkpt lat="46.26373330" lon="7.43890000"><ele></ele><time>2014-6-4T20:23:47Z</time></trkpt>
<trkpt lat="46.26401670" lon="7.43943330"><ele></ele><time>2014-6-4T20:23:50Z</time></trkpt>
<trkpt lat="46.26455000" lon="7.44021670"><ele></ele><time>2014-6-4T20:23:53Z</time></trkpt>
<trkpt lat="46.26465000" lon="7.44053330"><ele></ele><time>2014-6-4T20:23:56Z</time></trkpt>
<trkpt lat="46.26468330" lon="7.44101670"><ele></ele><time>2014-6-4T20:23:59Z</time></trkpt>
<trkpt lat="46.26456670" lon="7.44143330"><ele></ele><time>2014-6-4T20:24:2Z</time></trkpt>
<trkpt lat="46.26461670" lon="7.44183330"><ele></ele><time>2014-6-4T20:24:5Z</time></trkpt>
<trkpt lat="46.26498330" lon="7.44211670"><ele></ele><time>2014-6-4T20:24:8Z</time></trkpt>
<trkpt lat="46.26513330" lon="7.44240000"><ele></ele><time>2014-6-4T20:24:11Z</time></trkpt>
<trkpt lat="46.26521670" lon="7.44266670"><ele></ele><time>2014-6-4T20:24:14Z</time></trkpt>
<trkpt lat="46.26528330" lon="7.44303330"><ele></ele><time>2014-6-4T20:24:17Z</time></trkpt>
<trkpt lat="46.26540000" lon="7.44401670"><ele></ele><time>2014-6-4T20:24:20Z</time></trkpt>
<trkpt lat="46.26558330" lon="7.44453330"><ele></ele><time>2014-6-4T20:24:23Z</time></trkpt>
<trkpt lat="46.26596670" lon="7.44548330"><ele></ele><time>2014-6-4T20:24:26Z</time></trkpt>
<trkpt lat="46.26615000" lon="7.44586670"><ele></ele><time>2014-6-4T20:24:29Z</time></trkpt>
<trkpt lat="46.26631670" lon="7.44630000"><ele></ele><time>2014-6-4T20:24:32Z</time></trkpt>
<trkpt lat="46.26646670" lon="7.44645000"><ele></ele><time>2014-6-4T20:24:35Z</time></trkpt>
<trkpt lat="46.26656670" lon="7.44698330"><ele></ele><time>2014-6-4T20:24:38Z</time></trkpt>
<trkpt lat="46.26696670" lon="7.44763330"><ele></ele><time>2014-6-4T20:24:41Z</time></trkpt>
<trkpt lat="46.26768330" lon="7.44820000"><ele></ele><time>2014-6-4T20:24:44Z</time></trkpt>
<trkpt lat="46.26798330" lon="7.44850000"><ele></ele><time>2014-6-4T20:24:47Z</time></trkpt>
<trkpt lat="46.26818330" lon="7.44885000"><ele></ele><time>2014-6-4T20:24:50Z</time></trkpt>
<trkpt lat="46.26848330" lon="7.45005000"><ele></ele><time>2014-6-4T20:24:53Z</time></trkpt>
<trkpt lat="46.26871670" lon="7.45056670"><ele></ele><time>2014-6-4T20:24:56Z</time></trkpt>
<trkpt lat="46.26901670" lon="7.45093330"><ele></ele><time>2014-6-4T20:24:59Z</time></trkpt>
<trkpt lat="46.26923330" lon="7.45125000"><ele></ele><time>2014-6-4T20:25:2Z</time></trkpt>
<trkpt lat="46.26946670" lon="7.45185000"><ele></ele><time>2014-6-4T20:25:5Z</time></trkpt>
<trkpt lat="46.27010000" lon="7.45320000"><ele></ele><time>2014-6-4T20:25:8Z</time></trkpt>
<trkpt lat="46.27085000" lon="7.45380000"><ele></ele><time>2014-6-4T20:25:11Z</time></trkpt>
<trkpt lat="46.27136670" lon="7.45458330"><ele></ele><time>2014-6-4T20:25:14Z</time></trkpt>
<trkpt lat="46.27166670" lon="7.45555000"><ele></ele><time>2014-6-4T20:25:17Z</time></trkpt>
<trkpt lat="46.27191670" lon="7.45670000"><ele></ele><time>2014-6-4T20:25:20Z</time></trkpt>
<trkpt lat="46.27215000" lon="7.45808330"><ele></ele><time>2014-6-4T20:25:23Z</time></trkpt>
<trkpt lat="46.27225000" lon="7.45831670"><ele></ele><time>2014-6-4T20:25:26Z</time></trkpt>
<trkpt lat="46.27231670" lon="7.45860000"><ele></ele><time>2014-6-4T20:25:29Z</time></trkpt>
<trkpt lat="46.27241670" lon="7.45880000"><ele></ele><time>2014-6-4T20:25:32Z</time></trkpt>
<trkpt lat="46.27263330" lon="7.45900000"><ele></ele><time>2014-6-4T20:25:35Z</time></trkpt>
<trkpt lat="46.27278330" lon="7.45925000"><ele></ele><time>2014-6-4T20:25:38Z</time></trkpt>
<trkpt lat="46.27285000" lon="7.45966670"><ele></ele><time>2014-6-4T20:25:41Z</time></trkpt>
<trkpt lat="46.27300000" lon="7.46011670"><ele></ele><time>2014-6-4T20:25:44Z</time></trkpt>
<trkpt lat="46.27321670" lon="7.46046670"><ele></ele><time>2014-6-4T20:25:47Z</time></trkpt>
<trkpt lat="46.27333330" lon="7.46076670"><ele></ele><time>2014-6-4T20:25:50Z</time></trkpt>
<trkpt lat="46.27345000" lon="7.46140000"><ele></ele><time>2014-6-4T20:25:53Z</time></trkpt>
<trkpt lat="46.27426670" lon="7.46290000"><ele></ele><time>2014-6-4T20:25:56Z</time></trkpt>
<trkpt lat="46.27465000" lon="7.46353330"><ele></ele><time>2014-6-4T20:25:59Z</time></trkpt>
<trkpt lat="46.27543330" lon="7.46488330"><ele></ele><time>2014-6-4T20:26:2Z</time></trkpt>
<trkpt lat="46.27575000" lon="7.46563330"><ele></ele><time>2014-6-4T20:26:5Z</time></trkpt>
<trkpt lat="46.27585000" lon="7.46580000"><ele></ele><time>2014-6-4T20:26:8Z</time></trkpt>
<trkpt lat="46.27600000" lon="7.46595000"><ele></ele><time>2014-6-4T20:26:11Z</time></trkpt>
<trkpt lat="46.27595000" lon="7.46601670"><ele></ele><time>2014-6-4T20:26:14Z</time></trkpt>
<trkpt lat="46.27551670" lon="7.46563330"><ele></ele><time>2014-6-4T20:26:17Z</time></trkpt>
<trkpt lat="46.27485000" lon="7.46521670"><ele></ele><time>2014-6-4T20:26:20Z</time></trkpt>
<trkpt lat="46.27471670" lon="7.46500000"><ele></ele><time>2014-6-4T20:26:23Z</time></trkpt>
<trkpt lat="46.27458330" lon="7.46475000"><ele></ele><time>2014-6-4T20:26:26Z</time></trkpt>
<trkpt lat="46.27461670" lon="7.46475000"><ele></ele><time>2014-6-4T20:26:29Z</time></trkpt>
<trkpt lat="46.27448330" lon="7.46473330"><ele></ele><time>2014-6-4T20:26:32Z</time></trkpt>
<trkpt lat="46.27425000" lon="7.46481670"><ele></ele><time>2014-6-4T20:26:35Z</time></trkpt>
<trkpt lat="46.27393330" lon="7.46483330"><ele></ele><time>2014-6-4T20:26:38Z</time></trkpt>
<trkpt lat="46.27381670" lon="7.46468330"><ele></ele><time>2014-6-4T20:26:41Z</time></trkpt>
<trkpt lat="46.27368330" lon="7.46428330"><ele></ele><time>2014-6-4T20:26:44Z</time></trkpt>
<trkpt lat="46.27365000" lon="7.46425000"><ele></ele><time>2014-6-4T20:26:47Z</time></trkpt>
<trkpt lat="46.27321670" lon="7.46445000"><ele></ele><time>2014-6-4T20:26:50Z</time></trkpt>
<trkpt lat="46.27253330" lon="7.46423330"><ele></ele><time>2014-6-4T20:26:53Z</time></trkpt>
<trkpt lat="46.27216670" lon="7.46425000"><ele></ele><time>2014-6-4T20:26:56Z</time></trkpt>
<trkpt lat="46.27181670" lon="7.46400000"><ele></ele><time>2014-6-4T20:26:59Z</time></trkpt>
<trkpt lat="46.27150000" lon="7.46393330"><ele></ele><time>2014-6-4T20:27:2Z</time></trkpt>
<trkpt lat="46.27126670" lon="7.46375000"><ele></ele><time>2014-6-4T20:27:5Z</time></trkpt>
<trkpt lat="46.27091670" lon="7.46296670"><ele></ele><time>2014-6-4T20:27:8Z</time></trkpt>
<trkpt lat="46.27090000" lon="7.46280000"><ele></ele><time>2014-6-4T20:27:11Z</time></trkpt>
<trkpt lat="46.27095000" lon="7.46218330"><ele></ele><time>2014-6-4T20:27:14Z</time></trkpt>
<trkpt lat="46.27091670" lon="7.46168330"><ele></ele><time>2014-6-4T20:27:17Z</time></trkpt>
<trkpt lat="46.27081670" lon="7.46123330"><ele></ele><time>2014-6-4T20:27:20Z</time></trkpt>
<trkpt lat="46.27055000" lon="7.46101670"><ele></ele><time>2014-6-4T20:27:23Z</time></trkpt>
<trkpt lat="46.27040000" lon="7.46070000"><ele></ele><time>2014-6-4T20:27:26Z</time></trkpt>
<trkpt lat="46.27035000" lon="7.46033330"><ele></ele><time>2014-6-4T20:27:29Z</time></trkpt>
<trkpt lat="46.27021670" lon="7.46006670"><ele></ele><time>2014-6-4T20:27:32Z</time></trkpt>
<trkpt lat="46.26986670" lon="7.45953330"><ele></ele><time>2014-6-4T20:27:35Z</time></trkpt>
<trkpt lat="46.26955000" lon="7.45913330"><ele></ele><time>2014-6-4T20:27:38Z</time></trkpt>
<trkpt lat="46.26946670" lon="7.45893330"><ele></ele><time>2014-6-4T20:27:41Z</time></trkpt>
<trkpt lat="46.26935000" lon="7.45835000"><ele></ele><time>2014-6-4T20:27:44Z</time></trkpt>
<trkpt lat="46.26913330" lon="7.45765000"><ele></ele><time>2014-6-4T20:27:47Z</time></trkpt>
<trkpt lat="46.26911670" lon="7.45711670"><ele></ele><time>2014-6-4T20:27:50Z</time></trkpt>
<trkpt lat="46.26916670" lon="7.45685000"><ele></ele><time>2014-6-4T20:27:53Z</time></trkpt>
<trkpt lat="46.26903330" lon="7.45658330"><ele></ele><time>2014-6-4T20:27:56Z</time></trkpt>
<trkpt lat="46.26856670" lon="7.45571670"><ele></ele><time>2014-6-4T20:27:59Z</time></trkpt>
<trkpt lat="46.26830000" lon="7.45533330"><ele></ele><time>2014-6-4T20:28:2Z</time></trkpt>
<trkpt lat="46.26770000" lon="7.45431670"><ele></ele><time>2014-6-4T20:28:5Z</time></trkpt>
<trkpt lat="46.26741670" lon="7.45420000"><ele></ele><time>2014-6-4T20:28:8Z</time></trkpt>
<trkpt lat="46.26711670" lon="7.45436670"><ele></ele><time>2014-6-4T20:28:11Z</time></trkpt>
<trkpt lat="46.26696670" lon="7.45425000"><ele></ele><time>2014-6-4T20:28:14Z</time></trkpt>
<trkpt lat="46.26685000" lon="7.45391670"><ele></ele><time>2014-6-4T20:28:17Z</time></trkpt>
<trkpt lat="46.26673330" lon="7.45346670"><ele></ele><time>2014-6-4T20:28:20Z</time></trkpt>
<trkpt lat="46.26660000" lon="7.45308330"><ele></ele><time>2014-6-4T20:28:23Z</time></trkpt>
<trkpt lat="46.26646670" lon="7.45286670"><ele></ele><time>2014-6-4T20:28:26Z</time></trkpt>
<trkpt lat="46.26628330" lon="7.45271670"><ele></ele><time>2014-6-4T20:28:29Z</time></trkpt>
<trkpt lat="46.26596670" lon="7.45215000"><ele></ele><time>2014-6-4T20:28:32Z</time></trkpt>
<trkpt lat="46.26586670" lon="7.45191670"><ele></ele><time>2014-6-4T20:28:35Z</time></trkpt>
<trkpt lat="46.26540000" lon="7.45123330"><ele></ele><time>2014-6-4T20:28:38Z</time></trkpt>
<trkpt lat="46.26505000" lon="7.45040000"><ele></ele><time>2014-6-4T20:28:41Z</time></trkpt>
<trkpt lat="46.26480000" lon="7.44950000"><ele></ele><time>2014-6-4T20:28:44Z</time></trkpt>
<trkpt lat="46.26476670" lon="7.44883330"><ele></ele><time>2014-6-4T20:28:47Z</time></trkpt>
<trkpt lat="46.26468330" lon="7.44823330"><ele></ele><time>2014-6-4T20:28:50Z</time></trkpt>
<trkpt lat="46.26396670" lon="7.44655000"><ele></ele><time>2014-6-4T20:28:53Z</time></trkpt>
<trkpt lat="46.26326670" lon="7.44468330"><ele></ele><time>2014-6-4T20:28:56Z</time></trkpt>
<trkpt lat="46.26313330" lon="7.44408330"><ele></ele><time>2014-6-4T20:28:59Z</time></trkpt>
<trkpt lat="46.26303330" lon="7.44330000"><ele></ele><time>2014-6-4T20:29:2Z</time></trkpt>
<trkpt lat="46.26278330" lon="7.44258330"><ele></ele><time>2014-6-4T20:29:5Z</time></trkpt>
<trkpt lat="46.26251670" lon="7.44158330"><ele></ele><time>2014-6-4T20:29:8Z</time></trkpt>
<trkpt lat="46.26231670" lon="7.44116670"><ele></ele><time>2014-6-4T20:29:11Z</time></trkpt>
<trkpt lat="46.26186670" lon="7.44061670"><ele></ele><time>2014-6-4T20:29:14Z</time></trkpt>
<trkpt lat="46.26090000" lon="7.43921670"><ele></ele><time>2014-6-4T20:29:17Z</time></trkpt>
<trkpt lat="46.26041670" lon="7.43835000"><ele></ele><time>2014-6-4T20:29:20Z</time></trkpt>
<trkpt lat="46.26015000" lon="7.43780000"><ele></ele><time>2014-6-4T20:29:23Z</time></trkpt>
<trkpt lat="46.25978330" lon="7.43688330"><ele></ele><time>2014-6-4T20:29:26Z</time></trkpt>
<trkpt lat="46.25953330" lon="7.43636670"><ele></ele><time>2014-6-4T20:29:29Z</time></trkpt>
<trkpt lat="46.25925000" lon="7.43556670"><ele></ele><time>2014-6-4T20:29:32Z</time></trkpt>
<trkpt lat="46.25918330" lon="7.43518330"><ele></ele><time>2014-6-4T20:29:35Z</time></trkpt>
<trkpt lat="46.25905000" lon="7.43488330"><ele></ele><time>2014-6-4T20:29:38Z</time></trkpt>
<trkpt lat="46.25893330" lon="7.43381670"><ele></ele><time>2014-6-4T20:29:41Z</time></trkpt>
<trkpt lat="46.25881670" lon="7.43326670"><ele></ele><time>2014-6-4T20:29:44Z</time></trkpt>
<trkpt lat="46.25811670" lon="7.43151670"><ele></ele><time>2014-6-4T20:29:47Z</time></trkpt>
<trkpt lat="46.25788330" lon="7.43070000"><ele></ele><time>2014-6-4T20:29:50Z</time></trkpt>
<trkpt lat="46.25781670" lon="7.42968330"><ele></ele><time>2014-6-4T20:29:53Z</time></trkpt>
<trkpt lat="46.25755000" lon="7.42860000"><ele></ele><time>2014-6-4T20:29:56Z</time></trkpt>
<trkpt lat="46.25715000" lon="7.42728330"><ele></ele><time>2014-6-4T20:29:59Z</time></trkpt>
<trkpt lat="46.25710000" lon="7.42673330"><ele></ele><time>2014-6-4T20:30:2Z</time></trkpt>
<trkpt lat="46.25728330" lon="7.42585000"><ele></ele><time>2014-6-4T20:30:5Z</time></trkpt>
<trkpt lat="46.25731670" lon="7.42481670"><ele></ele><time>2014-6-4T20:30:8Z</time></trkpt>
<trkpt lat="46.25731670" lon="7.42460000"><ele></ele><time>2014-6-4T20:30:11Z</time></trkpt>
<trkpt lat="46.25721670" lon="7.42405000"><ele></ele><time>2014-6-4T20:30:14Z</time></trkpt>
<trkpt lat="46.25685000" lon="7.42308330"><ele></ele><time>2014-6-4T20:30:17Z</time></trkpt>
<trkpt lat="46.25616670" lon="7.42160000"><ele></ele><time>2014-6-4T20:30:20Z</time></trkpt>
<trkpt lat="46.25581670" lon="7.42106670"><ele></ele><time>2014-6-4T20:30:23Z</time></trkpt>
<trkpt lat="46.25543330" lon="7.42055000"><ele></ele><time>2014-6-4T20:30:26Z</time></trkpt>
<trkpt lat="46.25491670" lon="7.41975000"><ele></ele><time>2014-6-4T20:30:29Z</time></trkpt>
<trkpt lat="46.25471670" lon="7.41908330"><ele></ele><time>2014-6-4T20:30:32Z</time></trkpt>
<trkpt lat="46.25448330" lon="7.41870000"><ele></ele><time>2014-6-4T20:30:35Z</time></trkpt>
<trkpt lat="46.25446670" lon="7.41841670"><ele></ele><time>2014-6-4T20:30:38Z</time></trkpt>
<trkpt lat="46.25450000" lon="7.41803330"><ele></ele><time>2014-6-4T20:30:41Z</time></trkpt>
<trkpt lat="46.25465000" lon="7.41745000"><ele></ele><time>2014-6-4T20:30:44Z</time></trkpt>
<trkpt lat="46.25463330" lon="7.41741670"><ele></ele><time>2014-6-4T20:30:47Z</time></trkpt>
<trkpt lat="46.25441670" lon="7.41721670"><ele></ele><time>2014-6-4T20:30:50Z</time></trkpt>
<trkpt lat="46.25431670" lon="7.41721670"><ele></ele><time>2014-6-4T20:30:53Z</time></trkpt>
<trkpt lat="46.25418330" lon="7.41736670"><ele></ele><time>2014-6-4T20:30:56Z</time></trkpt>
<trkpt lat="46.25403330" lon="7.41711670"><ele></ele><time>2014-6-4T20:30:59Z</time></trkpt>
<trkpt lat="46.25390000" lon="7.41660000"><ele></ele><time>2014-6-4T20:31:2Z</time></trkpt>
<trkpt lat="46.25373330" lon="7.41610000"><ele></ele><time>2014-6-4T20:31:5Z</time></trkpt>
<trkpt lat="46.25350000" lon="7.41608330"><ele></ele><time>2014-6-4T20:31:8Z</time></trkpt>
<trkpt lat="46.25343330" lon="7.41621670"><ele></ele><time>2014-6-4T20:31:11Z</time></trkpt>
</trkseg></trk></gpx>